Terminal Aerodrome Forecast
Issued by NWS

Home | Current Version | Previous Version | Text Only | Print | Product List | Glossary On
Versions: 1 2 3 4 5 6 7 8 9 10 11 12 13 14 15 16 17 18 19
000
FTPA31 PHFO 222300
TAFJRF
TAF
PHJR 222339Z 2300/2324 15005KT P6SM VCSH SCT025 BKN040
      TEMPO 2300/2304 BKN025
     FM230400 VRB03KT P6SM BKN050
     FM232100 10008KT P6SM FEW030 SCT050=

USA.gov is the U.S. government's official web portal to all federal, state and local government web resources and services.